createdAt,value
2022-12-09T00:01:23.663Z,73.59
2022-12-09T00:03:52.556Z,73.84
2022-12-09T00:06:23.894Z,73.53
2022-12-09T00:08:55.662Z,73.75
2022-12-09T00:11:23.743Z,73.59
2022-12-09T00:13:56.272Z,73.33
2022-12-09T00:16:32.689Z,73.52
2022-12-09T00:19:00.078Z,73.34
2022-12-09T00:21:32.577Z,73.19
2022-12-09T00:24:04.721Z,73.48
2022-12-09T00:26:32.629Z,73.44
2022-12-09T00:29:02.187Z,73.60
2022-12-09T00:31:33.179Z,73.56
2022-12-09T00:34:09.549Z,73.57
2022-12-09T00:36:39.653Z,73.75
2022-12-09T00:39:08.170Z,73.85
2022-12-09T00:41:35.248Z,73.78
2022-12-09T00:44:02.379Z,73.58
2022-12-09T00:46:33.117Z,73.70
2022-12-09T00:49:02.025Z,73.64
2022-12-09T00:51:30.525Z,73.72
2022-12-09T00:53:58.306Z,73.90
2022-12-09T00:56:31.430Z,73.80
2022-12-09T00:58:59.426Z,73.73
2022-12-09T01:01:27.614Z,73.84
2022-12-09T01:03:55.323Z,73.88
2022-12-09T01:06:25.551Z,73.82
2022-12-09T01:08:52.933Z,74.08
2022-12-09T01:11:24.451Z,73.80
2022-12-09T01:13:52.976Z,73.94
2022-12-09T01:16:28.605Z,73.81
2022-12-09T01:19:00.258Z,73.98
2022-12-09T01:21:29.589Z,73.88
2022-12-09T01:23:56.784Z,73.87
2022-12-09T01:26:24.299Z,73.72
2022-12-09T01:28:53.594Z,73.89
2022-12-09T01:31:23.592Z,73.97
2022-12-09T01:33:51.845Z,73.96
2022-12-09T01:36:22.715Z,73.77
2022-12-09T01:38:50.155Z,73.66
2022-12-09T01:41:18.263Z,73.96
2022-12-09T01:43:46.625Z,73.92
2022-12-09T01:46:14.763Z,73.85
2022-12-09T01:48:44.980Z,73.82
2022-12-09T01:51:15.801Z,73.74
2022-12-09T01:53:45.927Z,73.88
2022-12-09T01:56:24.471Z,73.82
2022-12-09T01:58:53.187Z,73.70
2022-12-09T02:01:21.801Z,73.55
2022-12-09T02:03:49.558Z,73.53
2022-12-09T02:06:19.101Z,73.60
2022-12-09T02:08:48.344Z,73.79
2022-12-09T02:11:27.226Z,73.55
2022-12-09T02:14:15.860Z,73.67
2022-12-09T02:17:10.105Z,73.71
2022-12-09T02:19:43.937Z,73.69
2022-12-09T02:22:15.627Z,73.72
2022-12-09T02:24:59.203Z,73.55
2022-12-09T02:27:43.333Z,73.65
2022-12-09T02:30:23.874Z,73.63
2022-12-09T02:33:15.789Z,73.75
2022-12-09T02:35:55.095Z,73.52
2022-12-09T02:38:28.388Z,73.63
2022-12-09T02:41:08.303Z,73.59
2022-12-09T02:43:49.398Z,73.43
2022-12-09T02:46:20.888Z,73.30
2022-12-09T02:48:53.516Z,73.60
2022-12-09T02:51:24.604Z,73.61
2022-12-09T02:53:57.325Z,73.31
2022-12-09T02:56:27.209Z,73.24
2022-12-09T02:58:54.646Z,73.21
2022-12-09T03:01:38.575Z,73.41
2022-12-09T03:04:07.736Z,73.34
2022-12-09T03:06:51.578Z,73.14
2022-12-09T03:09:25.821Z,73.18
2022-12-09T03:11:56.301Z,73.14
2022-12-09T03:14:33.012Z,73.21
2022-12-09T03:17:15.176Z,73.09
2022-12-09T03:20:15.474Z,73.14
2022-12-09T03:22:48.713Z,73.22
2022-12-09T03:25:31.473Z,73.19
2022-12-09T03:28:12.141Z,73.08
2022-12-09T03:30:45.410Z,73.24
2022-12-09T03:33:16.478Z,73.24
2022-12-09T03:35:50.724Z,73.29
2022-12-09T03:38:21.766Z,73.13
2022-12-09T03:40:54.573Z,73.44
2022-12-09T03:43:25.647Z,73.20
2022-12-09T03:45:56.568Z,73.24
2022-12-09T03:48:24.340Z,73.07
2022-12-09T03:51:00.683Z,73.24
2022-12-09T03:53:40.837Z,73.34
2022-12-09T03:56:21.182Z,73.38
2022-12-09T03:58:50.619Z,73.42
2022-12-09T04:01:21.420Z,73.16
2022-12-09T04:03:52.101Z,73.40
2022-12-09T04:06:19.608Z,73.30
2022-12-09T04:08:47.256Z,73.25
2022-12-09T04:11:15.935Z,73.39
2022-12-09T04:13:42.887Z,73.28
2022-12-09T04:16:10.154Z,73.29
2022-12-09T04:18:38.650Z,73.20
2022-12-09T04:21:08.590Z,73.50
2022-12-09T04:23:42.281Z,73.31
2022-12-09T04:26:18.144Z,73.36
2022-12-09T04:28:45.233Z,73.27
2022-12-09T04:31:14.949Z,73.44
2022-12-09T04:33:43.411Z,73.26
2022-12-09T04:36:14.605Z,73.14
2022-12-09T04:38:42.253Z,72.90
2022-12-09T04:41:09.965Z,73.16
2022-12-09T04:43:37.800Z,73.14
2022-12-09T04:46:07.383Z,73.24
2022-12-09T04:48:35.110Z,73.11
2022-12-09T04:51:03.967Z,72.99
2022-12-09T04:53:31.673Z,73.06
2022-12-09T04:56:02.950Z,73.19
2022-12-09T04:58:30.561Z,73.15
2022-12-09T05:01:00.332Z,73.13
2022-12-09T05:03:28.791Z,73.18
2022-12-09T05:05:55.972Z,73.05
2022-12-09T05:08:28.392Z,73.13
2022-12-09T05:11:00.156Z,73.23
2022-12-09T05:13:28.557Z,73.23
2022-12-09T05:16:15.395Z,73.18
2022-12-09T05:18:44.282Z,73.02
2022-12-09T05:21:14.480Z,72.98
2022-12-09T05:23:42.291Z,73.03
2022-12-09T05:26:12.684Z,72.80
2022-12-09T05:28:40.325Z,72.66
2022-12-09T05:31:12.477Z,72.64
2022-12-09T05:33:39.685Z,72.75
2022-12-09T05:36:12.426Z,72.50
2022-12-09T05:38:41.047Z,72.65
2022-12-09T05:41:09.095Z,72.59
2022-12-09T05:43:37.601Z,72.52
2022-12-09T05:46:08.601Z,72.63
2022-12-09T05:48:36.878Z,72.61
2022-12-09T05:51:13.674Z,72.59
2022-12-09T05:53:40.803Z,72.74
2022-12-09T05:56:08.302Z,72.56
2022-12-09T05:58:40.294Z,72.71
2022-12-09T06:01:10.777Z,72.69
2022-12-09T06:03:39.785Z,72.64
2022-12-09T06:06:14.862Z,72.81
2022-12-09T06:08:46.596Z,72.85
2022-12-09T06:11:20.920Z,72.89
2022-12-09T06:13:49.703Z,72.73
2022-12-09T06:16:20.690Z,72.80
2022-12-09T06:18:49.408Z,72.95
2022-12-09T06:21:19.932Z,73.14
2022-12-09T06:23:48.285Z,72.96
2022-12-09T06:26:22.296Z,72.89
2022-12-09T06:28:50.845Z,73.14
2022-12-09T06:31:20.530Z,73.14
2022-12-09T06:33:57.705Z,73.13
2022-12-09T06:36:29.603Z,73.02
2022-12-09T06:39:01.802Z,73.20
2022-12-09T06:41:33.378Z,72.97
2022-12-09T06:44:00.803Z,72.87
2022-12-09T06:46:29.564Z,72.77
2022-12-09T06:48:56.879Z,72.81
2022-12-09T06:51:25.436Z,73.16
2022-12-09T06:53:54.465Z,72.98
2022-12-09T06:56:22.459Z,73.00
2022-12-09T06:58:50.607Z,73.03
2022-12-09T07:01:23.740Z,73.15
2022-12-09T07:03:53.837Z,73.37
2022-12-09T07:06:28.261Z,73.06
2022-12-09T07:08:57.548Z,73.27
2022-12-09T07:11:25.722Z,73.25
2022-12-09T07:13:53.491Z,73.19
2022-12-09T07:16:20.998Z,73.18
2022-12-09T07:18:48.586Z,73.46
2022-12-09T07:21:18.237Z,73.26
2022-12-09T07:23:46.622Z,73.20
2022-12-09T07:26:14.387Z,73.37
2022-12-09T07:28:42.902Z,73.37
2022-12-09T07:31:22.348Z,73.28
2022-12-09T07:33:50.846Z,73.40
2022-12-09T07:36:21.543Z,73.40
2022-12-09T07:38:54.676Z,73.03
2022-12-09T07:41:21.762Z,73.11
2022-12-09T07:43:50.376Z,73.24
2022-12-09T07:46:21.676Z,73.18
2022-12-09T07:48:50.320Z,73.17
2022-12-09T07:51:17.800Z,73.14
2022-12-09T07:53:45.985Z,73.20
2022-12-09T07:56:15.657Z,73.04
2022-12-09T07:58:44.605Z,73.27
2022-12-09T08:01:15.569Z,73.04
2022-12-09T08:03:43.505Z,72.90
2022-12-09T08:06:16.133Z,73.08
2022-12-09T08:08:45.215Z,73.01
2022-12-09T08:11:19.127Z,73.24
2022-12-09T08:13:47.534Z,73.12
2022-12-09T08:16:17.639Z,73.25
2022-12-09T08:18:45.526Z,73.34
2022-12-09T08:21:18.939Z,73.05
2022-12-09T08:23:46.466Z,73.26
2022-12-09T08:26:16.128Z,73.42
2022-12-09T08:28:44.398Z,73.21
2022-12-09T08:31:15.502Z,73.43
2022-12-09T08:33:43.994Z,73.43
2022-12-09T08:36:21.001Z,73.42
2022-12-09T08:38:48.735Z,73.69
2022-12-09T08:41:20.137Z,73.45
2022-12-09T08:43:48.440Z,73.42
2022-12-09T08:46:16.441Z,73.48
2022-12-09T08:48:44.180Z,73.36
2022-12-09T08:51:12.559Z,73.35
2022-12-09T08:53:40.763Z,73.32
2022-12-09T08:56:12.882Z,73.47
2022-12-09T08:58:42.366Z,73.48
2022-12-09T09:01:22.075Z,73.44
2022-12-09T09:03:51.739Z,73.31
2022-12-09T09:06:23.985Z,73.49
2022-12-09T09:08:52.354Z,73.53
2022-12-09T09:11:20.913Z,73.28
2022-12-09T09:13:51.779Z,73.55
2022-12-09T09:16:22.539Z,73.55
2022-12-09T09:18:51.607Z,73.79
2022-12-09T09:21:24.179Z,73.80
2022-12-09T09:23:51.922Z,73.70
2022-12-09T09:26:21.995Z,73.64
2022-12-09T09:28:50.240Z,73.77
2022-12-09T09:31:20.482Z,73.66
2022-12-09T09:33:49.317Z,73.85
2022-12-09T09:36:21.028Z,73.55
2022-12-09T09:38:53.917Z,73.83
2022-12-09T09:41:41.758Z,73.62
2022-12-09T09:44:24.194Z,73.30
2022-12-09T09:46:54.413Z,73.44
2022-12-09T09:49:21.682Z,73.44
2022-12-09T09:51:49.941Z,73.55
2022-12-09T09:54:17.411Z,73.60
2022-12-09T09:56:49.239Z,73.77
2022-12-09T09:59:25.522Z,74.02
2022-12-09T10:02:13.058Z,73.60
2022-12-09T10:05:13.312Z,73.30
2022-12-09T10:07:41.052Z,73.18
2022-12-09T10:10:28.411Z,73.05
2022-12-09T10:13:18.234Z,72.88
2022-12-09T10:16:07.544Z,72.68
2022-12-09T10:18:47.179Z,72.64
2022-12-09T10:21:20.237Z,72.29
2022-12-09T10:23:49.847Z,72.11
2022-12-09T10:26:25.661Z,72.02
2022-12-09T10:29:05.751Z,71.72
2022-12-09T10:31:32.917Z,71.49
2022-12-09T10:34:01.264Z,71.67
2022-12-09T10:36:35.497Z,71.65
2022-12-09T10:39:05.325Z,71.57
2022-12-09T10:42:20.204Z,71.27
2022-12-09T10:44:49.092Z,71.13
2022-12-09T10:47:28.562Z,70.91
2022-12-09T10:49:58.509Z,71.17
2022-12-09T10:52:32.454Z,71.06
2022-12-09T10:54:59.619Z,71.32
2022-12-09T10:57:29.753Z,71.27
2022-12-09T11:00:02.033Z,70.73
2022-12-09T11:02:32.937Z,70.59
2022-12-09T11:05:25.791Z,70.56
2022-12-09T11:07:56.238Z,70.38
2022-12-09T11:10:26.816Z,70.45
2022-12-09T11:13:02.314Z,70.45
2022-12-09T11:15:55.533Z,70.47
2022-12-09T11:18:30.151Z,70.47
2022-12-09T11:21:00.978Z,70.44
2022-12-09T11:23:28.989Z,70.40
2022-12-09T11:25:59.448Z,70.39
2022-12-09T11:28:31.953Z,70.64
2022-12-09T11:33:57.888Z,70.38
2022-12-09T11:36:35.357Z,70.04
2022-12-09T11:39:34.839Z,70.12
2022-12-09T11:42:17.434Z,69.85
2022-12-09T11:45:04.720Z,70.12
2022-12-09T11:48:12.844Z,70.20
2022-12-09T11:50:33.333Z,70.16
2022-12-09T11:53:12.943Z,69.84
2022-12-09T11:56:07.230Z,69.81
2022-12-09T11:58:48.419Z,69.70
2022-12-09T12:04:35.200Z,69.52
2022-12-09T12:07:07.759Z,69.48
2022-12-09T12:09:40.512Z,69.48
2022-12-09T12:12:24.052Z,69.47
2022-12-09T12:14:51.894Z,69.40
2022-12-09T12:17:32.540Z,69.17
2022-12-09T12:20:03.990Z,69.26
2022-12-09T12:22:54.336Z,69.27
2022-12-09T12:25:31.846Z,69.44
2022-12-09T12:28:10.327Z,69.15
2022-12-09T12:30:45.018Z,69.26
2022-12-09T12:36:47.505Z,68.98
2022-12-09T12:39:55.027Z,69.22
2022-12-09T12:42:31.993Z,69.37
2022-12-09T12:45:43.172Z,69.20
2022-12-09T12:48:21.634Z,69.40
2022-12-09T12:51:07.005Z,69.47
2022-12-09T12:54:19.478Z,69.26
2022-12-09T12:57:18.836Z,69.15
2022-12-09T13:00:01.286Z,69.46
2022-12-09T13:02:35.344Z,69.44
2022-12-09T13:05:12.780Z,69.39
2022-12-09T13:08:01.730Z,69.48
2022-12-09T13:11:02.687Z,69.38
2022-12-09T13:13:38.774Z,69.13
2022-12-09T13:16:36.907Z,69.12
2022-12-09T13:19:19.418Z,68.95
2022-12-09T13:21:47.200Z,69.48
2022-12-09T13:24:27.271Z,69.27
2022-12-09T13:26:59.279Z,69.37
2022-12-09T13:29:38.613Z,69.07
2022-12-09T13:32:20.392Z,69.13
2022-12-09T13:34:54.455Z,68.86
2022-12-09T13:37:44.657Z,68.93
2022-12-09T13:40:20.703Z,68.77
2022-12-09T13:43:09.779Z,68.54
2022-12-09T13:45:42.785Z,68.99
2022-12-09T13:48:17.528Z,68.89
2022-12-09T13:51:05.278Z,68.95
2022-12-09T13:53:42.640Z,68.78
2022-12-09T13:56:26.325Z,68.57
2022-12-09T13:59:14.766Z,69.02
2022-12-09T14:01:41.635Z,68.82
2022-12-09T14:04:11.543Z,68.76
2022-12-09T14:06:51.846Z,68.83
2022-12-09T14:09:45.091Z,68.80
2022-12-09T14:12:16.937Z,68.64
2022-12-09T14:14:43.879Z,68.41
2022-12-09T14:17:40.961Z,68.29
2022-12-09T14:20:25.865Z,68.67
2022-12-09T14:23:15.815Z,68.45
2022-12-09T14:25:56.270Z,68.39
2022-12-09T14:28:36.605Z,68.26
2022-12-09T14:31:08.702Z,68.59
2022-12-09T14:33:42.736Z,68.20
2022-12-09T14:36:17.424Z,68.04
2022-12-09T14:39:22.370Z,68.33
2022-12-09T14:41:54.045Z,68.39
2022-12-09T14:44:39.885Z,68.10
2022-12-09T14:47:19.996Z,68.28
2022-12-09T14:49:49.434Z,68.08
2022-12-09T14:52:25.474Z,68.23
2022-12-09T14:54:54.753Z,68.14
2022-12-09T14:57:34.651Z,68.16
2022-12-09T15:00:02.826Z,68.21
2022-12-09T15:02:32.174Z,68.18
2022-12-09T15:05:01.534Z,68.11
2022-12-09T15:07:33.595Z,68.26
2022-12-09T15:10:04.337Z,68.18
2022-12-09T15:12:50.376Z,68.09
2022-12-09T15:15:32.676Z,68.39
2022-12-09T15:18:06.481Z,68.21
2022-12-09T15:20:40.517Z,68.23
2022-12-09T15:23:16.450Z,68.24
2022-12-09T15:25:48.716Z,68.04
2022-12-09T15:28:26.337Z,68.26
2022-12-09T15:30:57.525Z,68.35
2022-12-09T15:33:25.429Z,68.21
2022-12-09T15:36:09.102Z,68.49
2022-12-09T15:38:41.299Z,68.24
2022-12-09T15:44:25.906Z,68.45
2022-12-09T15:46:55.930Z,68.36
2022-12-09T15:49:29.497Z,68.48
2022-12-09T15:51:56.767Z,68.60
2022-12-09T15:54:29.052Z,68.49
2022-12-09T15:56:59.573Z,68.73
2022-12-09T15:59:43.407Z,68.58
2022-12-09T16:02:15.517Z,68.49
2022-12-09T16:04:49.182Z,68.38
2022-12-09T16:07:20.276Z,68.72
2022-12-09T16:10:04.122Z,68.55
2022-12-09T16:12:34.696Z,68.58
2022-12-09T16:15:05.024Z,68.57
2022-12-09T16:17:38.414Z,68.61
2022-12-09T16:20:45.816Z,68.37
2022-12-09T16:23:25.626Z,68.65
2022-12-09T16:26:03.149Z,68.65
2022-12-09T16:28:33.527Z,68.49
2022-12-09T16:31:04.069Z,68.50
2022-12-09T16:33:38.806Z,68.49
2022-12-09T16:36:07.628Z,68.49
2022-12-09T16:38:37.016Z,68.50
2022-12-09T16:41:08.926Z,68.62
2022-12-09T16:43:36.790Z,68.60
2022-12-09T16:46:13.456Z,68.57
2022-12-09T16:48:42.723Z,68.56
2022-12-09T16:51:12.678Z,68.62
2022-12-09T16:53:50.081Z,68.74
2022-12-09T16:56:29.127Z,68.81
2022-12-09T16:58:57.687Z,68.63
2022-12-09T17:01:33.877Z,68.63
2022-12-09T17:04:16.300Z,68.53
2022-12-09T17:06:44.228Z,68.64
2022-12-09T17:09:12.157Z,68.48
2022-12-09T17:11:42.888Z,68.64
2022-12-09T17:14:14.258Z,68.67
2022-12-09T17:16:41.246Z,68.64
2022-12-09T17:19:13.128Z,68.63
2022-12-09T17:21:40.084Z,68.50
2022-12-09T17:24:07.543Z,68.70
2022-12-09T17:26:35.766Z,68.52
2022-12-09T17:29:03.120Z,68.46
2022-12-09T17:31:30.227Z,68.44
2022-12-09T17:33:58.713Z,68.46
2022-12-09T17:36:26.188Z,68.33
2022-12-09T17:38:53.039Z,68.55
2022-12-09T17:41:23.626Z,68.50
2022-12-09T17:43:50.662Z,68.50
2022-12-09T17:46:19.731Z,68.57
2022-12-09T17:48:46.866Z,68.65
2022-12-09T17:51:18.084Z,68.62
2022-12-09T17:53:47.026Z,68.64
2022-12-09T17:56:20.841Z,68.91
2022-12-09T17:58:48.934Z,68.67
2022-12-09T18:01:31.965Z,68.76
2022-12-09T18:04:06.200Z,68.78
2022-12-09T18:06:36.318Z,68.90
2022-12-09T18:09:05.905Z,68.72
2022-12-09T18:11:33.593Z,68.75
2022-12-09T18:14:00.711Z,68.87
2022-12-09T18:16:28.763Z,68.91
2022-12-09T18:19:01.815Z,69.11
2022-12-09T18:21:29.842Z,68.99
2022-12-09T18:23:56.932Z,69.03
2022-12-09T18:26:28.673Z,68.99
2022-12-09T18:28:58.736Z,69.10
2022-12-09T18:31:26.146Z,69.17
2022-12-09T18:33:53.422Z,69.19
2022-12-09T18:36:27.796Z,69.20
2022-12-09T18:38:55.472Z,69.22
2022-12-09T18:41:30.402Z,69.34
2022-12-09T18:43:59.435Z,69.14
2022-12-09T18:46:33.136Z,69.28
2022-12-09T18:49:13.463Z,69.11
2022-12-09T18:51:42.289Z,69.02
2022-12-09T18:54:14.170Z,69.13
2022-12-09T18:56:41.179Z,69.05
2022-12-09T18:59:10.631Z,69.06
2022-12-09T19:01:41.490Z,69.03
2022-12-09T19:04:16.031Z,69.34
2022-12-09T19:06:46.962Z,69.40
2022-12-09T19:09:20.455Z,69.38
2022-12-09T19:11:49.112Z,69.46
2022-12-09T19:14:18.670Z,69.27
2022-12-09T19:16:46.915Z,69.37
2022-12-09T19:19:17.870Z,69.29
2022-12-09T19:21:46.283Z,69.34
2022-12-09T19:24:22.857Z,69.35
2022-12-09T19:26:50.114Z,69.22
2022-12-09T19:29:18.363Z,69.58
2022-12-09T19:31:49.474Z,69.46
2022-12-09T19:34:21.083Z,69.60
2022-12-09T19:36:49.922Z,69.61
2022-12-09T19:39:22.168Z,69.64
2022-12-09T19:41:49.781Z,69.59
2022-12-09T19:44:37.327Z,69.78
2022-12-09T19:47:06.637Z,69.74
2022-12-09T19:49:33.594Z,69.79
2022-12-09T19:52:04.188Z,69.67
2022-12-09T19:54:31.200Z,69.63
2022-12-09T19:56:58.138Z,69.69
2022-12-09T19:59:26.691Z,69.74
2022-12-09T20:01:54.294Z,69.68
2022-12-09T20:07:11.722Z,69.69
2022-12-09T20:09:40.453Z,69.84
2022-12-09T20:12:07.806Z,69.82
2022-12-09T20:14:34.901Z,69.96
2022-12-09T20:17:01.860Z,69.90
2022-12-09T20:19:29.284Z,69.93
2022-12-09T20:21:56.399Z,70.03
2022-12-09T20:24:23.411Z,69.97
2022-12-09T20:26:50.723Z,69.98
2022-12-09T20:29:17.614Z,70.05
2022-12-09T20:31:45.526Z,70.00
2022-12-09T20:34:16.264Z,70.09
2022-12-09T20:36:44.950Z,70.10
2022-12-09T20:39:21.103Z,70.08
2022-12-09T20:41:48.575Z,70.01
2022-12-09T20:44:18.054Z,70.11
2022-12-09T20:46:47.783Z,70.18
2022-12-09T20:49:14.977Z,70.23
2022-12-09T20:51:45.407Z,70.26
2022-12-09T20:54:13.653Z,70.38
2022-12-09T20:56:41.108Z,70.31
2022-12-09T20:59:11.072Z,70.34
2022-12-09T21:01:39.943Z,70.42
2022-12-09T21:04:08.743Z,70.35
2022-12-09T21:06:38.895Z,70.41
2022-12-09T21:09:09.590Z,70.37
2022-12-09T21:11:37.754Z,70.47
2022-12-09T21:14:07.107Z,70.61
2022-12-09T21:16:38.927Z,70.66
2022-12-09T21:19:07.562Z,70.66
2022-12-09T21:21:37.716Z,70.74
2022-12-09T21:24:06.363Z,70.73
2022-12-09T21:26:33.372Z,70.75
2022-12-09T21:29:05.725Z,70.72
2022-12-09T21:31:36.596Z,70.77
2022-12-09T21:34:05.798Z,70.79
2022-12-09T21:36:36.157Z,70.81
2022-12-09T21:39:04.451Z,70.77
2022-12-09T21:41:34.813Z,70.73
2022-12-09T21:44:02.385Z,70.81
2022-12-09T21:46:35.740Z,70.88
2022-12-09T21:49:07.148Z,70.94
2022-12-09T21:51:34.939Z,70.96
2022-12-09T21:54:02.309Z,71.01
2022-12-09T21:56:31.381Z,70.95
2022-12-09T21:58:59.279Z,71.00
2022-12-09T22:01:33.200Z,70.86
2022-12-09T22:04:01.304Z,71.01
2022-12-09T22:06:29.934Z,70.90
2022-12-09T22:08:59.843Z,71.04
2022-12-09T22:11:29.683Z,70.91
2022-12-09T22:13:58.864Z,70.86
2022-12-09T22:16:30.350Z,70.95
2022-12-09T22:18:59.966Z,71.07
2022-12-09T22:21:30.695Z,71.00
2022-12-09T22:24:00.891Z,70.96
2022-12-09T22:26:28.835Z,71.13
2022-12-09T22:28:58.395Z,71.17
2022-12-09T22:31:29.592Z,71.25
2022-12-09T22:34:00.624Z,71.20
2022-12-09T22:36:27.670Z,71.12
2022-12-09T22:38:55.024Z,71.08
2022-12-09T22:41:24.220Z,70.95
2022-12-09T22:43:51.890Z,71.08
2022-12-09T22:46:21.549Z,71.05
2022-12-09T22:48:49.276Z,71.16
2022-12-09T22:51:20.717Z,71.17
2022-12-09T22:53:51.972Z,71.15
2022-12-09T22:56:19.830Z,71.14
2022-12-09T22:58:47.909Z,71.11
2022-12-09T23:01:19.761Z,71.30
2022-12-09T23:03:47.415Z,71.38
2022-12-09T23:06:14.752Z,71.27
2022-12-09T23:08:43.365Z,71.22
2022-12-09T23:11:17.509Z,71.27
2022-12-09T23:13:44.628Z,71.29
2022-12-09T23:16:14.649Z,71.31
2022-12-09T23:18:42.130Z,71.46
2022-12-09T23:21:18.737Z,71.38
2022-12-09T23:23:46.372Z,71.38
2022-12-09T23:26:17.715Z,71.25
2022-12-09T23:28:50.359Z,71.38
2022-12-09T23:31:20.852Z,71.41
2022-12-09T23:33:49.248Z,71.38
2022-12-09T23:36:19.176Z,71.28
2022-12-09T23:38:48.448Z,71.31
2022-12-09T23:41:17.878Z,71.37
2022-12-09T23:43:46.351Z,71.44
2022-12-09T23:46:26.494Z,71.49
2022-12-09T23:48:55.831Z,71.35
2022-12-09T23:51:29.296Z,71.42
2022-12-09T23:53:58.876Z,71.48
2022-12-09T23:56:28.843Z,71.55
2022-12-09T23:59:02.163Z,71.50
